Bei Facebook empfehlenBei Twitter postenGoogle plusPinterest

Das Wetter im Erzgebirge am 06.09.2016

Wetter und Klima am 06.09.2016 Holzhau im Erzgebirge (630m ü.NN)
Letzte gemessene Temperatur und Uhrzeit der Messung23:45:00 Uhr8.10 °C
Temperatur (Maximum / Höchstwert) und Uhrzeit der Messung15:45:00 Uhr19.20 °C
Temperatur (Minimum / Tiefstwert) und Uhrzeit der Messung23:45:008.10 °C
Errechneter Absolutwert der Temperaturschwankungen zwischen Tmin und Tmax des Tages11.10 K
Errechnete Tagesmitteltemperatur12.83854 °C
Gesamt - Niederschlag des Tages (in flüssiger Form)0.00 Liter / m²
Luftdruck (Maximum / Höchstwert) und Zeitpunkt der Messung13:00:00 Uhr1024.90 hPa
Luftdruck (Minimum / Tiefstwert) und Zeitpunkt der Messung00:00:00 Uhr1018.90 hPa
Errechneter Absolutwert der Luftdruckschwankungen des Tages6.00 hPa
Höchste gemessene Windgeschwindigkeit und Uhrzeit der Messung23:45:00 Uhr0.00 km/h
Errechnete Windhäufigkeit in Relation zu den Messwerten des Tages0.00000 %
Niedrigste Windkühle (Windchill) und Zeitpunkt der Messung23:45:00 Uhr8.10 °C
Taupunkt (Maximum / Höchstwert) und Uhrzeit der Messung12:45:00 Uhr15.20 °C
Taupunkt (Minimum / Tiefstwert) und Uhrzeit der Messung23:45:006.70 °C
Anzahl der automatisch eingelesenen Messwerte 96

Detaillierte Wetter- und Klima- Messwerte für den 06.09.2016 in Holzhau im Erzgebirge (630m ü.NN)
ZeitTemperaturLuftdruckRel. LuftfeuchteWindWindrichtungWindchillTaupunktNiederschlag l/m²
23:45:008.10 °C1024.10 hPa91.00 %6.70 °C 
23:30:008.30 °C1024.10 hPa91.00 %6.90 °C 
23:15:008.40 °C1024.20 hPa90.00 %6.90 °C 
23:00:008.80 °C1024.10 hPa90.00 %7.30 °C 
22:45:009.00 °C1024.20 hPa90.00 %7.50 °C 
22:30:009.20 °C1024.30 hPa89.00 %7.50 °C 
22:15:009.30 °C1024.30 hPa89.00 %7.60 °C 
22:00:009.30 °C1024.50 hPa89.00 %7.60 °C 
21:45:009.40 °C1024.60 hPa88.00 %7.50 °C 
21:30:009.30 °C1024.50 hPa87.00 %7.30 °C 
21:15:009.70 °C1024.50 hPa87.00 %7.60 °C 
21:00:009.90 °C1024.40 hPa86.00 %7.70 °C 
20:45:0010.30 °C1024.70 hPa85.00 %7.90 °C 
20:30:0010.80 °C1024.60 hPa85.00 %8.40 °C 
20:15:0011.10 °C1024.20 hPa84.00 %8.50 °C 
20:00:0011.70 °C1024.10 hPa82.00 %8.70 °C 
19:45:0012.40 °C1024.30 hPa81.00 %9.20 °C 
19:30:0013.30 °C1024.20 hPa79.00 %9.70 °C 
19:15:0014.00 °C1024.10 hPa78.00 %10.20 °C 
19:00:0014.70 °C1024.10 hPa77.00 %10.70 °C 
18:45:0015.00 °C1024.00 hPa76.00 %10.80 °C 
18:30:0015.30 °C1024.10 hPa75.00 %10.90 °C 
18:15:0015.90 °C1024.00 hPa73.00 %11.10 °C 
18:00:0016.60 °C1024.10 hPa73.00 %11.70 °C 
17:45:0017.00 °C1024.20 hPa72.00 %11.90 °C 
17:30:0017.20 °C1024.10 hPa72.00 %12.10 °C 
17:15:0017.20 °C1024.20 hPa72.00 %12.10 °C 
17:00:0017.60 °C1024.00 hPa72.00 %12.50 °C 
16:45:0017.60 °C1024.20 hPa72.00 %12.50 °C 
16:30:0017.80 °C1024.20 hPa72.00 %12.70 °C 
16:15:0017.50 °C1024.40 hPa71.00 %12.20 °C 
16:00:0018.60 °C1024.20 hPa71.00 %13.20 °C 
15:45:0019.20 °C1024.60 hPa72.00 %14.00 °C 
15:30:0018.80 °C1024.60 hPa73.00 %13.90 °C 
15:15:0018.10 °C1024.60 hPa73.00 %13.20 °C 
15:00:0018.10 °C1024.70 hPa73.00 %13.20 °C 
14:45:0017.90 °C1024.70 hPa75.00 %13.40 °C 
14:30:0017.60 °C1024.40 hPa76.00 %13.30 °C 
14:15:0017.40 °C1024.70 hPa77.00 %13.30 °C 
14:00:0017.10 °C1024.50 hPa78.00 %13.20 °C 
13:45:0016.80 °C1024.60 hPa78.00 %12.90 °C 
13:30:0016.80 °C1024.80 hPa81.00 %13.50 °C 
13:15:0016.40 °C1024.80 hPa83.00 %13.50 °C 
13:00:0016.70 °C1024.90 hPa87.00 %14.50 °C 
12:45:0016.80 °C1024.70 hPa90.00 %15.20 °C 
12:30:0016.10 °C1024.70 hPa91.00 %14.60 °C 
12:15:0015.90 °C1024.70 hPa93.00 %14.80 °C 
12:00:0015.60 °C1024.60 hPa94.00 %14.60 °C 
11:45:0014.40 °C1024.70 hPa94.00 %13.40 °C 
11:30:0014.90 °C1024.40 hPa95.00 %14.10 °C 
11:15:0014.60 °C1024.60 hPa95.00 %13.80 °C 
11:00:0014.90 °C1024.20 hPa96.00 %14.30 °C 
10:45:0014.90 °C1024.30 hPa96.00 %14.30 °C 
10:30:0013.40 °C1024.00 hPa96.00 %12.80 °C 
10:15:0013.10 °C1023.80 hPa96.00 %12.50 °C 
10:00:0012.40 °C1023.70 hPa96.00 %11.80 °C 
09:45:0011.90 °C1023.60 hPa96.00 %11.30 °C 
09:30:0011.80 °C1023.60 hPa96.00 %11.20 °C 
09:15:0011.30 °C1023.40 hPa96.00 %10.70 °C 
09:00:0011.30 °C1023.20 hPa96.00 %10.70 °C 
08:45:0011.20 °C1023.10 hPa95.00 %10.40 °C 
08:30:0010.90 °C1022.80 hPa95.00 %10.10 °C 
08:15:0010.70 °C1022.70 hPa96.00 %10.10 °C 
08:00:0010.40 °C1022.50 hPa96.00 %9.80 °C 
07:45:0010.10 °C1022.30 hPa96.00 %9.50 °C 
07:30:009.50 °C1022.30 hPa96.00 %8.90 °C 
07:15:009.00 °C1022.10 hPa96.00 %8.40 °C 
07:00:008.70 °C1021.90 hPa95.00 %7.90 °C 
06:45:008.60 °C1021.90 hPa95.00 %7.80 °C 
06:30:008.80 °C1021.90 hPa95.00 %8.00 °C 
06:15:008.70 °C1021.70 hPa95.00 %7.90 °C 
06:00:008.80 °C1021.50 hPa95.00 %8.00 °C 
05:45:009.00 °C1021.50 hPa95.00 %8.20 °C 
05:30:009.10 °C1021.50 hPa95.00 %8.30 °C 
05:15:009.10 °C1021.40 hPa95.00 %8.30 °C 
05:00:009.10 °C1021.20 hPa95.00 %8.30 °C 
04:45:009.30 °C1021.10 hPa95.00 %8.50 °C 
04:30:009.20 °C1021.10 hPa95.00 %8.40 °C 
04:15:009.30 °C1020.90 hPa95.00 %8.50 °C 
04:00:009.80 °C1020.70 hPa95.00 %9.00 °C 
03:45:0010.30 °C1020.80 hPa95.00 %9.50 °C 
03:30:0010.80 °C1020.60 hPa95.00 %10.00 °C 
03:15:0011.40 °C1020.50 hPa95.00 %10.60 °C 
03:00:0012.10 °C1020.30 hPa95.00 %11.30 °C 
02:45:0012.40 °C1020.20 hPa95.00 %11.60 °C 
02:30:0012.60 °C1020.00 hPa95.00 %11.80 °C 
02:15:0012.80 °C1020.00 hPa95.00 %12.00 °C 
02:00:0012.90 °C1019.90 hPa95.00 %12.10 °C 
01:45:0012.90 °C1019.90 hPa95.00 %12.10 °C 
01:30:0012.90 °C1019.70 hPa95.00 %12.10 °C 
01:15:0012.90 °C1019.60 hPa95.00 %12.10 °C 
01:00:0012.90 °C1019.50 hPa95.00 %12.10 °C 
00:45:0012.90 °C1019.30 hPa95.00 %12.10 °C 
00:30:0012.90 °C1019.10 hPa95.00 %12.10 °C 
00:15:0013.00 °C1019.20 hPa95.00 %12.20 °C 
00:00:0013.00 °C1018.90 hPa95.00 %12.20 °C 

Permanenter Link zu dieser Seite: Wetter im Erzgebirge am 06.09.2016
Performance-Info: Die Erstellung der Seite / Statistik(en) / Tabelle(n) erforderte 5 Datenbankserver-Abfrage(n) und dauerte 124 Millisekunden. (Dieser Messwert ist von der Gesamt-Auslastung des Servers abhängig.)
Erzgebirge - Wetter | Erzgebirge - Wetter (Mobilgeräte) | Komplette Klimadatenbank